Time;durP1;ratioP1;P1;durP2;ratioP2;P2;SDS_P1;SDS_P2;PMS_P1;PMS_P2;Temp;Humidity;BMP_temperature;BMP_pressure;BME280_temperature;BME280_humidity;BME280_pressure;Samples;Min_cycle;Max_cycle;Signal;HPM_P1;HPM_P2
2022/08/05 00:00:03;;;;;;;0.00;0.00;;;;;;;;;;1733546;28;20636;-70
2022/08/05 00:00:54;;;;;;;0.00;0.00;;;;;;;;;;1731775;28;20632;-70
2022/08/05 00:01:47;;;;;;;0.00;0.00;;;;;;;;;;1733964;28;20242;-70
2022/08/05 00:02:38;;;;;;;0.00;0.00;;;;;;;;;;1732904;28;20525;-70
2022/08/05 00:03:30;;;;;;;0.00;0.00;;;;;;;;;;1734641;28;20203;-70
2022/08/05 00:04:23;;;;;;;0.00;0.00;;;;;;;;;;1732761;28;20207;-70
2022/08/05 00:05:15;;;;;;;0.00;0.00;;;;;;;;;;1733330;28;20307;-70
2022/08/05 00:06:06;;;;;;;0.00;0.00;;;;;;;;;;1732660;28;20206;-70
2022/08/05 00:06:58;;;;;;;0.00;0.00;;;;;;;;;;1734681;28;20615;-70
2022/08/05 00:07:49;;;;;;;0.00;0.00;;;;;;;;;;1733463;28;20276;-70
2022/08/05 00:08:42;;;;;;;0.00;0.00;;;;;;;;;;1734290;28;20206;-70
2022/08/05 00:09:33;;;;;;;0.00;0.00;;;;;;;;;;1729444;28;20201;-70
2022/08/05 00:10:26;;;;;;;0.00;0.00;;;;;;;;;;1732682;28;20195;-70
2022/08/05 00:11:17;;;;;;;0.00;0.00;;;;;;;;;;1732767;28;20696;-70
2022/08/05 00:12:09;;;;;;;0.00;0.00;;;;;;;;;;1733514;28;20643;-70
2022/08/05 00:13:00;;;;;;;0.00;0.00;;;;;;;;;;1732784;28;20224;-70
2022/08/05 00:13:52;;;;;;;0.00;0.00;;;;;;;;;;1733251;28;20227;-70
2022/08/05 00:14:44;;;;;;;0.00;0.00;;;;;;;;;;1733005;28;20214;-70
2022/08/05 00:15:36;;;;;;;0.00;0.00;;;;;;;;;;1732256;28;20249;-70
2022/08/05 00:16:27;;;;;;;0.00;0.00;;;;;;;;;;1734016;28;20210;-70
2022/08/05 00:17:19;;;;;;;0.00;0.00;;;;;;;;;;1733173;28;20290;-70
2022/08/05 00:18:11;;;;;;;0.00;0.00;;;;;;;;;;1733970;28;20549;-70
2022/08/05 00:19:04;;;;;;;0.00;0.00;;;;;;;;;;1732550;28;20231;-70
2022/08/05 00:19:57;;;;;;;0.00;0.00;;;;;;;;;;1734209;28;20325;-70
2022/08/05 00:20:49;;;;;;;0.00;0.00;;;;;;;;;;1731515;28;20239;-70
2022/08/05 00:21:40;;;;;;;0.00;0.00;;;;;;;;;;1734166;28;20523;-70
2022/08/05 00:22:32;;;;;;;0.00;0.00;;;;;;;;;;1732355;28;20214;-70
2022/08/05 00:23:24;;;;;;;0.00;0.00;;;;;;;;;;1734033;28;20637;-70
2022/08/05 00:24:16;;;;;;;0.00;0.00;;;;;;;;;;1732904;28;20219;-70
2022/08/05 00:25:07;;;;;;;0.00;0.00;;;;;;;;;;1733629;28;20208;-70
2022/08/05 00:25:59;;;;;;;0.00;0.00;;;;;;;;;;1731596;28;20254;-70
2022/08/05 00:26:51;;;;;;;0.00;0.00;;;;;;;;;;1733926;28;20469;-70
2022/08/05 00:27:42;;;;;;;0.00;0.00;;;;;;;;;;1732566;28;20764;-70
2022/08/05 00:28:35;;;;;;;0.00;0.00;;;;;;;;;;1734109;28;20238;-70
2022/08/05 00:29:26;;;;;;;0.00;0.00;;;;;;;;;;1732777;28;20204;-70
2022/08/05 00:30:18;;;;;;;0.00;0.00;;;;;;;;;;1733073;28;20214;-70
2022/08/05 00:31:10;;;;;;;0.00;0.00;;;;;;;;;;1732488;28;20211;-70
2022/08/05 00:32:03;;;;;;;0.00;0.00;;;;;;;;;;1733993;28;20471;-70
2022/08/05 00:32:54;;;;;;;0.00;0.00;;;;;;;;;;1732249;28;20269;-69
2022/08/05 00:33:45;;;;;;;0.00;0.00;;;;;;;;;;1734005;28;20477;-69
2022/08/05 00:34:37;;;;;;;0.00;0.00;;;;;;;;;;1732505;28;20238;-69
2022/08/05 00:35:30;;;;;;;0.00;0.00;;;;;;;;;;1732483;28;20239;-69
2022/08/05 00:36:23;;;;;;;0.00;0.00;;;;;;;;;;1733108;28;20207;-69
2022/08/05 00:37:14;;;;;;;0.00;0.00;;;;;;;;;;1732939;28;20211;-69
2022/08/05 00:38:06;;;;;;;0.00;0.00;;;;;;;;;;1733608;28;20210;-69
2022/08/05 00:38:58;;;;;;;0.00;0.00;;;;;;;;;;1732919;28;20203;-69
2022/08/05 00:39:50;;;;;;;0.00;0.00;;;;;;;;;;1732510;28;20253;-69
2022/08/05 00:40:46;;;;;;;0.00;0.00;;;;;;;;;;1731082;28;20239;-69
2022/08/05 00:41:38;;;;;;;0.00;0.00;;;;;;;;;;1731535;28;20538;-69
2022/08/05 00:42:29;;;;;;;0.00;0.00;;;;;;;;;;1728543;28;20207;-69
2022/08/05 00:43:22;;;;;;;0.00;0.00;;;;;;;;;;1733849;28;20219;-69
2022/08/05 00:44:13;;;;;;;0.00;0.00;;;;;;;;;;1732195;28;20203;-69
2022/08/05 00:45:06;;;;;;;0.00;0.00;;;;;;;;;;1734152;28;20211;-69
2022/08/05 00:45:57;;;;;;;0.00;0.00;;;;;;;;;;1730998;28;20236;-69
2022/08/05 00:46:50;;;;;;;0.00;0.00;;;;;;;;;;1734083;28;20597;-69
2022/08/05 00:47:41;;;;;;;0.00;0.00;;;;;;;;;;1732076;28;20212;-69
2022/08/05 00:48:33;;;;;;;0.00;0.00;;;;;;;;;;1734100;28;20291;-69
2022/08/05 00:49:25;;;;;;;0.00;0.00;;;;;;;;;;1732294;28;20207;-69
2022/08/05 00:50:17;;;;;;;0.00;0.00;;;;;;;;;;1732589;28;20555;-69
2022/08/05 00:51:09;;;;;;;0.00;0.00;;;;;;;;;;1732416;28;20213;-69
2022/08/05 00:52:02;;;;;;;0.00;0.00;;;;;;;;;;1733659;28;20218;-69
2022/08/05 00:52:53;;;;;;;0.00;0.00;;;;;;;;;;1733151;28;20573;-69
2022/08/05 00:53:45;;;;;;;0.00;0.00;;;;;;;;;;1733977;28;20222;-70
2022/08/05 00:54:36;;;;;;;0.00;0.00;;;;;;;;;;1732384;28;20246;-69
2022/08/05 00:55:29;;;;;;;0.00;0.00;;;;;;;;;;1731918;28;20235;-69
2022/08/05 00:56:20;;;;;;;0.00;0.00;;;;;;;;;;1732684;28;20208;-69
2022/08/05 00:57:12;;;;;;;0.00;0.00;;;;;;;;;;1733533;28;20207;-70
2022/08/05 00:58:03;;;;;;;0.00;0.00;;;;;;;;;;1732880;28;20201;-70
2022/08/05 00:58:56;;;;;;;0.00;0.00;;;;;;;;;;1733502;28;20207;-70
2022/08/05 00:59:47;;;;;;;0.00;0.00;;;;;;;;;;1733688;28;20204;-70
2022/08/05 01:00:40;;;;;;;0.00;0.00;;;;;;;;;;1730782;28;20374;-69
2022/08/05 01:01:31;;;;;;;0.00;0.00;;;;;;;;;;1730796;28;20415;-69
2022/08/05 01:02:23;;;;;;;0.00;0.00;;;;;;;;;;1732721;28;20536;-69
2022/08/05 01:03:15;;;;;;;0.00;0.00;;;;;;;;;;1734006;28;20204;-69
2022/08/05 01:04:07;;;;;;;0.00;0.00;;;;;;;;;;1731883;28;20231;-69
2022/08/05 01:04:58;;;;;;;0.00;0.00;;;;;;;;;;1734305;28;20204;-69
2022/08/05 01:05:49;;;;;;;0.00;0.00;;;;;;;;;;1730815;28;20250;-69
2022/08/05 01:06:43;;;;;;;0.00;0.00;;;;;;;;;;1733717;28;20896;-69
2022/08/05 01:07:34;;;;;;;0.00;0.00;;;;;;;;;;1732228;28;20216;-69
2022/08/05 01:08:26;;;;;;;0.00;0.00;;;;;;;;;;1733855;28;20243;-69
2022/08/05 01:09:17;;;;;;;0.00;0.00;;;;;;;;;;1731416;28;20668;-69
2022/08/05 01:10:11;;;;;;;0.00;0.00;;;;;;;;;;1734214;28;20522;-69
2022/08/05 01:11:04;;;;;;;0.00;0.00;;;;;;;;;;1724154;28;20572;-69
2022/08/05 01:11:58;;;;;;;0.00;0.00;;;;;;;;;;1722205;28;20232;-69
2022/08/05 01:12:52;;;;;;;0.00;0.00;;;;;;;;;;1726160;28;20223;-69
2022/08/05 01:13:47;;;;;;;0.00;0.00;;;;;;;;;;1727201;28;20215;-69
2022/08/05 01:14:41;;;;;;;0.00;0.00;;;;;;;;;;1726358;28;20216;-69
2022/08/05 01:15:39;;;;;;;0.00;0.00;;;;;;;;;;1727480;28;20241;-69
2022/08/05 01:16:33;;;;;;;0.00;0.00;;;;;;;;;;1730376;28;20362;-69
2022/08/05 01:17:28;;;;;;;0.00;0.00;;;;;;;;;;1732952;28;20203;-69
2022/08/05 01:18:23;;;;;;;0.00;0.00;;;;;;;;;;1733796;28;20211;-69
2022/08/05 01:19:27;;;;;;;0.00;0.00;;;;;;;;;;1731461;28;20477;-69
2022/08/05 01:20:25;;;;;;;0.00;0.00;;;;;;;;;;1725902;28;20197;-69
2022/08/05 01:21:24;;;;;;;0.00;0.00;;;;;;;;;;1731714;28;20212;-69
2022/08/05 01:22:29;;;;;;;0.00;0.00;;;;;;;;;;1731525;28;20203;-69
2022/08/05 01:23:29;;;;;;;0.00;0.00;;;;;;;;;;1731684;28;20235;-69
2022/08/05 01:24:26;;;;;;;0.00;0.00;;;;;;;;;;1733082;28;20632;-69
2022/08/05 01:25:35;;;;;;;0.00;0.00;;;;;;;;;;1725916;28;20189;-70
2022/08/05 01:26:31;;;;;;;0.00;0.00;;;;;;;;;;1733436;28;20314;-70
2022/08/05 01:27:29;;;;;;;0.00;0.00;;;;;;;;;;1731961;28;20200;-70
2022/08/05 01:28:26;;;;;;;0.00;0.00;;;;;;;;;;1733848;28;20211;-70
2022/08/05 01:29:20;;;;;;;0.00;0.00;;;;;;;;;;1732206;28;20263;-70
2022/08/05 01:30:11;;;;;;;0.00;0.00;;;;;;;;;;1732754;28;20254;-70
2022/08/05 01:31:08;;;;;;;0.00;0.00;;;;;;;;;;1731700;28;20206;-70
2022/08/05 01:32:01;;;;;;;0.00;0.00;;;;;;;;;;1733683;28;20195;-70
2022/08/05 01:32:54;;;;;;;0.00;0.00;;;;;;;;;;1732669;28;20556;-70
2022/08/05 01:33:48;;;;;;;0.00;0.00;;;;;;;;;;1733790;28;20199;-70
2022/08/05 01:34:44;;;;;;;0.00;0.00;;;;;;;;;;1733267;28;20210;-70
2022/08/05 01:35:37;;;;;;;0.00;0.00;;;;;;;;;;1730554;28;20235;-70
2022/08/05 01:36:31;;;;;;;0.00;0.00;;;;;;;;;;1730253;28;20219;-70
2022/08/05 01:37:25;;;;;;;0.00;0.00;;;;;;;;;;1731536;28;20215;-70
2022/08/05 01:38:19;;;;;;;0.00;0.00;;;;;;;;;;1733496;28;20195;-70
2022/08/05 01:39:11;;;;;;;0.00;0.00;;;;;;;;;;1731064;28;21307;-70
2022/08/05 01:40:05;;;;;;;0.00;0.00;;;;;;;;;;1730571;28;20197;-70
2022/08/05 01:40:58;;;;;;;0.00;0.00;;;;;;;;;;1724507;28;20579;-70
2022/08/05 01:41:51;;;;;;;0.00;0.00;;;;;;;;;;1731169;28;20208;-70
2022/08/05 01:42:44;;;;;;;0.00;0.00;;;;;;;;;;1730160;28;20203;-70
2022/08/05 01:43:38;;;;;;;0.00;0.00;;;;;;;;;;1733544;28;20774;-70
2022/08/05 01:44:30;;;;;;;0.00;0.00;;;;;;;;;;1732843;28;20607;-70
2022/08/05 01:45:23;;;;;;;0.00;0.00;;;;;;;;;;1732702;28;20298;-69
2022/08/05 01:46:14;;;;;;;0.00;0.00;;;;;;;;;;1731721;28;20207;-69
2022/08/05 01:47:07;;;;;;;0.00;0.00;;;;;;;;;;1733645;28;20203;-69
2022/08/05 01:47:59;;;;;;;0.00;0.00;;;;;;;;;;1732872;28;20234;-69
2022/08/05 01:48:53;;;;;;;0.00;0.00;;;;;;;;;;1732574;28;20215;-69
2022/08/05 01:49:45;;;;;;;0.00;0.00;;;;;;;;;;1733529;28;20227;-69
2022/08/05 01:50:38;;;;;;;0.00;0.00;;;;;;;;;;1731327;28;20231;-71
2022/08/05 01:51:31;;;;;;;0.00;0.00;;;;;;;;;;1730124;28;20376;-70
2022/08/05 01:52:24;;;;;;;0.00;0.00;;;;;;;;;;1731855;28;20200;-69
2022/08/05 01:53:20;;;;;;;0.00;0.00;;;;;;;;;;1733530;28;20697;-69
2022/08/05 01:54:13;;;;;;;0.00;0.00;;;;;;;;;;1731178;28;20297;-69
2022/08/05 01:55:07;;;;;;;0.00;0.00;;;;;;;;;;1733859;28;20208;-69
2022/08/05 01:56:00;;;;;;;0.00;0.00;;;;;;;;;;1730962;28;20704;-70
2022/08/05 01:56:52;;;;;;;0.00;0.00;;;;;;;;;;1733223;28;20245;-70
2022/08/05 01:57:46;;;;;;;0.00;0.00;;;;;;;;;;1731701;28;20199;-70
2022/08/05 01:58:39;;;;;;;0.00;0.00;;;;;;;;;;1726736;28;20205;-70
2022/08/05 01:59:33;;;;;;;0.00;0.00;;;;;;;;;;1730599;28;20200;-70
2022/08/05 02:00:25;;;;;;;0.00;0.00;;;;;;;;;;1732246;28;20271;-70
2022/08/05 02:01:20;;;;;;;0.00;0.00;;;;;;;;;;1732758;28;20203;-70
2022/08/05 02:02:12;;;;;;;0.00;0.00;;;;;;;;;;1732507;28;20219;-70
2022/08/05 02:03:07;;;;;;;0.00;0.00;;;;;;;;;;1732018;28;20207;-70
2022/08/05 02:03:59;;;;;;;0.00;0.00;;;;;;;;;;1732635;28;20219;-70
2022/08/05 02:04:52;;;;;;;0.00;0.00;;;;;;;;;;1729651;28;20204;-70
2022/08/05 02:05:44;;;;;;;0.00;0.00;;;;;;;;;;1730931;28;20318;-70
2022/08/05 02:06:37;;;;;;;0.00;0.00;;;;;;;;;;1733407;28;20223;-70
2022/08/05 02:07:29;;;;;;;0.00;0.00;;;;;;;;;;1731721;28;20645;-70
2022/08/05 02:08:21;;;;;;;0.00;0.00;;;;;;;;;;1733552;28;20223;-70
2022/08/05 02:09:13;;;;;;;0.00;0.00;;;;;;;;;;1730738;28;20262;-70
2022/08/05 02:10:06;;;;;;;0.00;0.00;;;;;;;;;;1733579;28;20196;-70
2022/08/05 02:10:59;;;;;;;0.00;0.00;;;;;;;;;;1729349;28;20685;-70
2022/08/05 02:12:03;;;;;;;0.00;0.00;;;;;;;;;;1733221;28;20204;-70
2022/08/05 02:12:56;;;;;;;0.00;0.00;;;;;;;;;;1731418;28;20618;-70
2022/08/05 02:13:54;;;;;;;0.00;0.00;;;;;;;;;;1732768;28;20301;-71
2022/08/05 02:14:49;;;;;;;0.00;0.00;;;;;;;;;;1732229;28;20204;-70
2022/08/05 02:15:44;;;;;;;0.00;0.00;;;;;;;;;;1730100;28;20232;-70
2022/08/05 02:16:38;;;;;;;0.00;0.00;;;;;;;;;;1733559;28;20577;-70
2022/08/05 02:17:32;;;;;;;0.00;0.00;;;;;;;;;;1731675;28;20653;-70
2022/08/05 02:18:25;;;;;;;0.00;0.00;;;;;;;;;;1733485;28;20211;-70
2022/08/05 02:19:21;;;;;;;0.00;0.00;;;;;;;;;;1732577;28;20317;-70
2022/08/05 02:20:16;;;;;;;0.00;0.00;;;;;;;;;;1732165;28;20212;-70
2022/08/05 02:21:10;;;;;;;0.00;0.00;;;;;;;;;;1732608;28;20293;-70
2022/08/05 02:22:05;;;;;;;0.00;0.00;;;;;;;;;;1733438;28;20227;-69
2022/08/05 02:22:59;;;;;;;0.00;0.00;;;;;;;;;;1731377;28;20203;-69
2022/08/05 02:23:52;;;;;;;0.00;0.00;;;;;;;;;;1732271;28;20307;-69
2022/08/05 02:24:47;;;;;;;0.00;0.00;;;;;;;;;;1733402;28;20598;-69
2022/08/05 02:25:41;;;;;;;0.00;0.00;;;;;;;;;;1730797;28;20243;-69
2022/08/05 02:26:36;;;;;;;0.00;0.00;;;;;;;;;;1730207;28;20656;-69
2022/08/05 02:27:28;;;;;;;0.00;0.00;;;;;;;;;;1731386;28;20204;-70
2022/08/05 02:28:22;;;;;;;0.00;0.00;;;;;;;;;;1733316;28;20262;-70
2022/08/05 02:29:18;;;;;;;0.00;0.00;;;;;;;;;;1731423;28;20342;-70
2022/08/05 02:30:11;;;;;;;0.00;0.00;;;;;;;;;;1732692;28;20302;-70
2022/08/05 02:31:08;;;;;;;0.00;0.00;;;;;;;;;;1730690;28;20292;-70
2022/08/05 02:32:01;;;;;;;0.00;0.00;;;;;;;;;;1733025;28;20204;-70
2022/08/05 02:32:55;;;;;;;0.00;0.00;;;;;;;;;;1731376;28;20268;-70
2022/08/05 02:33:49;;;;;;;0.00;0.00;;;;;;;;;;1733120;28;20662;-70
2022/08/05 02:34:41;;;;;;;0.00;0.00;;;;;;;;;;1731981;28;20611;-70
2022/08/05 02:35:36;;;;;;;0.00;0.00;;;;;;;;;;1731402;28;20235;-70
2022/08/05 02:36:28;;;;;;;0.00;0.00;;;;;;;;;;1732723;28;20200;-70
2022/08/05 02:37:20;;;;;;;0.00;0.00;;;;;;;;;;1731759;28;20601;-70
2022/08/05 02:38:12;;;;;;;0.00;0.00;;;;;;;;;;1730756;28;20215;-70
2022/08/05 02:39:05;;;;;;;0.00;0.00;;;;;;;;;;1731536;28;20214;-70
2022/08/05 02:39:57;;;;;;;0.00;0.00;;;;;;;;;;1730844;28;20209;-70
2022/08/05 02:40:49;;;;;;;0.00;0.00;;;;;;;;;;1719833;28;20260;-70
2022/08/05 02:41:41;;;;;;;0.00;0.00;;;;;;;;;;1724069;28;20201;-70
2022/08/05 02:42:34;;;;;;;0.00;0.00;;;;;;;;;;1720937;28;20695;-70
2022/08/05 02:43:26;;;;;;;0.00;0.00;;;;;;;;;;1726494;28;20209;-70
2022/08/05 02:44:20;;;;;;;0.00;0.00;;;;;;;;;;1724485;28;20208;-70
2022/08/05 02:45:12;;;;;;;0.00;0.00;;;;;;;;;;1726878;28;20211;-70
2022/08/05 02:46:04;;;;;;;0.00;0.00;;;;;;;;;;1730173;28;20639;-69
2022/08/05 02:46:56;;;;;;;0.00;0.00;;;;;;;;;;1733090;28;20531;-69
2022/08/05 02:47:49;;;;;;;0.00;0.00;;;;;;;;;;1731627;28;20283;-69
2022/08/05 02:48:40;;;;;;;0.00;0.00;;;;;;;;;;1733378;28;20349;-69
2022/08/05 02:49:34;;;;;;;0.00;0.00;;;;;;;;;;1731804;28;20203;-69
2022/08/05 02:50:26;;;;;;;0.00;0.00;;;;;;;;;;1732035;28;20212;-69
2022/08/05 02:51:19;;;;;;;0.00;0.00;;;;;;;;;;1732202;28;20199;-69
2022/08/05 02:52:11;;;;;;;0.00;0.00;;;;;;;;;;1732816;28;20362;-69
2022/08/05 02:53:04;;;;;;;0.00;0.00;;;;;;;;;;1732291;28;20223;-69
2022/08/05 02:53:56;;;;;;;0.00;0.00;;;;;;;;;;1732500;28;20284;-69
2022/08/05 02:54:49;;;;;;;0.00;0.00;;;;;;;;;;1732851;28;20290;-69
2022/08/05 02:55:40;;;;;;;0.00;0.00;;;;;;;;;;1730549;28;20243;-70
2022/08/05 02:56:33;;;;;;;0.00;0.00;;;;;;;;;;1729866;28;20231;-70
2022/08/05 02:57:25;;;;;;;0.00;0.00;;;;;;;;;;1731526;28;20195;-70
2022/08/05 02:58:17;;;;;;;0.00;0.00;;;;;;;;;;1733344;28;20226;-70
2022/08/05 02:59:10;;;;;;;0.00;0.00;;;;;;;;;;1732621;28;20290;-69
2022/08/05 03:00:04;;;;;;;0.00;0.00;;;;;;;;;;1733256;28;20246;-70
2022/08/05 03:00:56;;;;;;;0.00;0.00;;;;;;;;;;1730368;28;20257;-70
2022/08/05 03:01:50;;;;;;;0.00;0.00;;;;;;;;;;1733035;28;20265;-70
2022/08/05 03:02:43;;;;;;;0.00;0.00;;;;;;;;;;1731644;28;20235;-70
2022/08/05 03:03:38;;;;;;;0.00;0.00;;;;;;;;;;1732945;28;20195;-70
2022/08/05 03:04:29;;;;;;;0.00;0.00;;;;;;;;;;1731558;28;20538;-70
2022/08/05 03:05:21;;;;;;;0.00;0.00;;;;;;;;;;1731968;28;20528;-69
2022/08/05 03:06:13;;;;;;;0.00;0.00;;;;;;;;;;1731871;28;20199;-69
2022/08/05 03:07:05;;;;;;;0.00;0.00;;;;;;;;;;1733147;28;20623;-69
2022/08/05 03:07:57;;;;;;;0.00;0.00;;;;;;;;;;1730306;28;20207;-69
2022/08/05 03:08:49;;;;;;;0.00;0.00;;;;;;;;;;1732665;28;20587;-69
2022/08/05 03:09:43;;;;;;;0.00;0.00;;;;;;;;;;1731384;28;20510;-69
2022/08/05 03:10:35;;;;;;;0.00;0.00;;;;;;;;;;1731505;28;20255;-70
2022/08/05 03:11:28;;;;;;;0.00;0.00;;;;;;;;;;1732353;28;20265;-70
2022/08/05 03:12:51;;;;;;;0.00;0.00;;;;;;;;;;1728644;28;20204;-70
2022/08/05 03:13:42;;;;;;;0.00;0.00;;;;;;;;;;1732775;28;20204;-70
2022/08/05 03:14:34;;;;;;;0.00;0.00;;;;;;;;;;1731452;28;20235;-70
2022/08/05 03:15:27;;;;;;;0.00;0.00;;;;;;;;;;1731361;28;20561;-70
2022/08/05 03:16:19;;;;;;;0.00;0.00;;;;;;;;;;1731519;28;20212;-70
2022/08/05 03:17:11;;;;;;;0.00;0.00;;;;;;;;;;1732725;28;20226;-70
2022/08/05 03:18:03;;;;;;;0.00;0.00;;;;;;;;;;1731824;28;20199;-70
2022/08/05 03:18:54;;;;;;;0.00;0.00;;;;;;;;;;1731664;28;20203;-70
2022/08/05 03:19:46;;;;;;;0.00;0.00;;;;;;;;;;1732297;28;20931;-70
2022/08/05 03:20:37;;;;;;;0.00;0.00;;;;;;;;;;1730408;28;20234;-70
2022/08/05 03:21:30;;;;;;;0.00;0.00;;;;;;;;;;1729411;28;20613;-70
2022/08/05 03:22:21;;;;;;;0.00;0.00;;;;;;;;;;1730993;28;20870;-70
2022/08/05 03:23:13;;;;;;;0.00;0.00;;;;;;;;;;1732978;28;20218;-70
2022/08/05 03:24:06;;;;;;;0.00;0.00;;;;;;;;;;1731370;28;20212;-70
2022/08/05 03:24:58;;;;;;;0.00;0.00;;;;;;;;;;1733207;28;20250;-70
2022/08/05 03:25:50;;;;;;;0.00;0.00;;;;;;;;;;1731453;28;20240;-70
2022/08/05 03:26:42;;;;;;;0.00;0.00;;;;;;;;;;1733205;28;20208;-70
2022/08/05 03:27:33;;;;;;;0.00;0.00;;;;;;;;;;1731868;28;20278;-69
2022/08/05 03:28:25;;;;;;;0.00;0.00;;;;;;;;;;1732537;28;20588;-69
2022/08/05 03:29:17;;;;;;;0.00;0.00;;;;;;;;;;1730914;28;20524;-69
2022/08/05 03:30:09;;;;;;;0.00;0.00;;;;;;;;;;1732860;28;20265;-69
2022/08/05 03:31:03;;;;;;;0.00;0.00;;;;;;;;;;1723224;28;20239;-69
2022/08/05 03:31:55;;;;;;;0.00;0.00;;;;;;;;;;1726117;28;20543;-69
2022/08/05 03:32:47;;;;;;;0.00;0.00;;;;;;;;;;1724472;28;20206;-69
2022/08/05 03:33:38;;;;;;;0.00;0.00;;;;;;;;;;1726389;28;20629;-69
2022/08/05 03:34:31;;;;;;;0.00;0.00;;;;;;;;;;1723371;28;20622;-69
2022/08/05 03:35:22;;;;;;;0.00;0.00;;;;;;;;;;1718943;28;20213;-69
2022/08/05 03:36:14;;;;;;;0.00;0.00;;;;;;;;;;1724441;28;20204;-69
2022/08/05 03:37:07;;;;;;;0.00;0.00;;;;;;;;;;1726265;28;20201;-69
2022/08/05 03:37:58;;;;;;;0.00;0.00;;;;;;;;;;1724872;28;20211;-69
2022/08/05 03:38:51;;;;;;;0.00;0.00;;;;;;;;;;1725747;28;20204;-69
2022/08/05 03:39:51;;;;;;;0.00;0.00;;;;;;;;;;1724313;28;20219;-69
2022/08/05 03:40:44;;;;;;;0.00;0.00;;;;;;;;;;1718683;28;20229;-69
2022/08/05 03:41:35;;;;;;;0.00;0.00;;;;;;;;;;1723438;28;20208;-69
2022/08/05 03:42:27;;;;;;;0.00;0.00;;;;;;;;;;1720916;28;20200;-69
2022/08/05 03:43:19;;;;;;;0.00;0.00;;;;;;;;;;1725725;28;20208;-69
2022/08/05 03:44:11;;;;;;;0.00;0.00;;;;;;;;;;1724886;28;20205;-70
2022/08/05 03:45:04;;;;;;;0.00;0.00;;;;;;;;;;1726052;28;20212;-70
2022/08/05 03:45:56;;;;;;;0.00;0.00;;;;;;;;;;1722625;28;20229;-70
2022/08/05 03:46:48;;;;;;;0.00;0.00;;;;;;;;;;1725973;28;20215;-70
2022/08/05 03:47:40;;;;;;;0.00;0.00;;;;;;;;;;1724382;28;20720;-70
2022/08/05 03:48:32;;;;;;;0.00;0.00;;;;;;;;;;1726226;28;20204;-70
2022/08/05 03:49:24;;;;;;;0.00;0.00;;;;;;;;;;1724213;28;20541;-70
2022/08/05 03:50:15;;;;;;;0.00;0.00;;;;;;;;;;1725077;28;20212;-70
2022/08/05 03:51:11;;;;;;;0.00;0.00;;;;;;;;;;1723902;28;20709;-70
2022/08/05 03:52:04;;;;;;;0.00;0.00;;;;;;;;;;1726261;28;20204;-70
2022/08/05 03:52:58;;;;;;;0.00;0.00;;;;;;;;;;1724160;28;20680;-70
2022/08/05 03:53:51;;;;;;;0.00;0.00;;;;;;;;;;1725544;28;20669;-70
2022/08/05 03:54:46;;;;;;;0.00;0.00;;;;;;;;;;1725389;28;20326;-70
2022/08/05 03:55:40;;;;;;;0.00;0.00;;;;;;;;;;1724978;28;20588;-70
2022/08/05 03:56:36;;;;;;;0.00;0.00;;;;;;;;;;1729576;28;20289;-70
2022/08/05 03:57:28;;;;;;;0.00;0.00;;;;;;;;;;1731012;28;20207;-70
2022/08/05 03:58:22;;;;;;;0.00;0.00;;;;;;;;;;1731808;28;20273;-70
2022/08/05 03:59:14;;;;;;;0.00;0.00;;;;;;;;;;1730329;28;20287;-70
2022/08/05 04:00:08;;;;;;;0.00;0.00;;;;;;;;;;1733273;28;20541;-70
2022/08/05 04:01:01;;;;;;;0.00;0.00;;;;;;;;;;1723901;28;20236;-70
2022/08/05 04:01:55;;;;;;;0.00;0.00;;;;;;;;;;1725523;28;20200;-70
2022/08/05 04:02:49;;;;;;;0.00;0.00;;;;;;;;;;1725170;28;20203;-70
2022/08/05 04:03:43;;;;;;;0.00;0.00;;;;;;;;;;1725998;28;20215;-70
2022/08/05 04:04:34;;;;;;;0.00;0.00;;;;;;;;;;1724547;28;20208;-70
2022/08/05 04:05:29;;;;;;;0.00;0.00;;;;;;;;;;1726991;28;20238;-70
2022/08/05 04:06:21;;;;;;;0.00;0.00;;;;;;;;;;1732655;28;20203;-70
2022/08/05 04:07:14;;;;;;;0.00;0.00;;;;;;;;;;1732199;28;20200;-70
2022/08/05 04:08:07;;;;;;;0.00;0.00;;;;;;;;;;1731671;28;20208;-70
2022/08/05 04:08:59;;;;;;;0.00;0.00;;;;;;;;;;1730836;28;20580;-70
2022/08/05 04:09:51;;;;;;;0.00;0.00;;;;;;;;;;1727763;28;20238;-70
2022/08/05 04:10:45;;;;;;;0.00;0.00;;;;;;;;;;1720987;28;20286;-70
2022/08/05 04:11:37;;;;;;;0.00;0.00;;;;;;;;;;1725909;28;20204;-70
2022/08/05 04:12:30;;;;;;;0.00;0.00;;;;;;;;;;1725023;28;20200;-70
2022/08/05 04:13:21;;;;;;;0.00;0.00;;;;;;;;;;1726147;28;20200;-70
2022/08/05 04:14:13;;;;;;;0.00;0.00;;;;;;;;;;1722265;28;20232;-70
2022/08/05 04:15:05;;;;;;;0.00;0.00;;;;;;;;;;1722088;28;20778;-70
2022/08/05 04:15:57;;;;;;;0.00;0.00;;;;;;;;;;1720325;28;20294;-70
2022/08/05 04:16:48;;;;;;;0.00;0.00;;;;;;;;;;1725922;28;20208;-70
2022/08/05 04:17:42;;;;;;;0.00;0.00;;;;;;;;;;1724579;28;20212;-70
2022/08/05 04:18:34;;;;;;;0.00;0.00;;;;;;;;;;1725914;28;20223;-70
2022/08/05 04:19:26;;;;;;;0.00;0.00;;;;;;;;;;1724523;28;20581;-70
2022/08/05 04:20:18;;;;;;;0.00;0.00;;;;;;;;;;1724508;28;20223;-70
2022/08/05 04:21:11;;;;;;;0.00;0.00;;;;;;;;;;1724557;28;20262;-70
2022/08/05 04:22:02;;;;;;;0.00;0.00;;;;;;;;;;1725713;28;20216;-70
2022/08/05 04:22:54;;;;;;;0.00;0.00;;;;;;;;;;1723685;28;20208;-70
2022/08/05 04:23:45;;;;;;;0.00;0.00;;;;;;;;;;1726130;28;20251;-70
2022/08/05 04:24:38;;;;;;;0.00;0.00;;;;;;;;;;1724324;28;20283;-70
2022/08/05 04:25:29;;;;;;;0.00;0.00;;;;;;;;;;1724190;28;20696;-70
2022/08/05 04:26:21;;;;;;;0.00;0.00;;;;;;;;;;1725026;28;20287;-70
2022/08/05 04:27:13;;;;;;;0.00;0.00;;;;;;;;;;1725523;28;20216;-70
2022/08/05 04:28:05;;;;;;;0.00;0.00;;;;;;;;;;1725863;28;20200;-70
2022/08/05 04:28:56;;;;;;;0.00;0.00;;;;;;;;;;1724953;28;20216;-70
2022/08/05 04:29:49;;;;;;;0.00;0.00;;;;;;;;;;1725786;28;20255;-69
2022/08/05 04:30:40;;;;;;;0.00;0.00;;;;;;;;;;1723269;28;20559;-69
2022/08/05 04:31:32;;;;;;;0.00;0.00;;;;;;;;;;1726130;28;20208;-70
2022/08/05 04:32:23;;;;;;;0.00;0.00;;;;;;;;;;1724236;28;20212;-70
2022/08/05 04:33:16;;;;;;;0.00;0.00;;;;;;;;;;1725790;28;20553;-70
2022/08/05 04:34:08;;;;;;;0.00;0.00;;;;;;;;;;1724450;28;20571;-70
2022/08/05 04:35:00;;;;;;;0.00;0.00;;;;;;;;;;1725627;28;20293;-70
2022/08/05 04:35:52;;;;;;;0.00;0.00;;;;;;;;;;1730282;28;20544;-69
2022/08/05 04:36:43;;;;;;;0.00;0.00;;;;;;;;;;1732558;28;20208;-68
2022/08/05 04:37:35;;;;;;;0.00;0.00;;;;;;;;;;1731166;28;20228;-68
2022/08/05 04:38:26;;;;;;;0.00;0.00;;;;;;;;;;1732444;28;20256;-68
2022/08/05 04:39:19;;;;;;;0.00;0.00;;;;;;;;;;1730783;28;20204;-68
2022/08/05 04:40:11;;;;;;;0.00;0.00;;;;;;;;;;1731745;28;20394;-68
2022/08/05 04:41:03;;;;;;;0.00;0.00;;;;;;;;;;1731050;28;20207;-68
2022/08/05 04:41:54;;;;;;;0.00;0.00;;;;;;;;;;1732656;28;20212;-68
2022/08/05 04:42:46;;;;;;;0.00;0.00;;;;;;;;;;1731313;28;20203;-68
2022/08/05 04:43:38;;;;;;;0.00;0.00;;;;;;;;;;1731924;28;20289;-68
2022/08/05 04:44:30;;;;;;;0.00;0.00;;;;;;;;;;1730168;28;20261;-68
2022/08/05 04:45:24;;;;;;;0.00;0.00;;;;;;;;;;1723850;28;20584;-68
2022/08/05 04:46:16;;;;;;;0.00;0.00;;;;;;;;;;1721737;28;20197;-68
2022/08/05 04:47:07;;;;;;;0.00;0.00;;;;;;;;;;1726926;28;20216;-69
2022/08/05 04:48:07;;;;;;;0.00;0.00;;;;;;;;;;1726139;28;20204;-69
2022/08/05 04:48:59;;;;;;;0.00;0.00;;;;;;;;;;1725950;28;20208;-69
2022/08/05 04:49:51;;;;;;;0.00;0.00;;;;;;;;;;1723734;28;20223;-69
2022/08/05 04:50:44;;;;;;;0.00;0.00;;;;;;;;;;1725637;28;20294;-69
2022/08/05 04:51:36;;;;;;;0.00;0.00;;;;;;;;;;1726905;28;20199;-69
2022/08/05 04:52:28;;;;;;;0.00;0.00;;;;;;;;;;1726481;28;20779;-69
2022/08/05 04:53:21;;;;;;;0.00;0.00;;;;;;;;;;1727056;28;20272;-69
2022/08/05 04:54:13;;;;;;;0.00;0.00;;;;;;;;;;1725709;28;20212;-69
2022/08/05 04:55:06;;;;;;;0.00;0.00;;;;;;;;;;1723895;28;20562;-69
2022/08/05 04:55:57;;;;;;;0.00;0.00;;;;;;;;;;1721856;28;20237;-69
2022/08/05 04:56:49;;;;;;;0.00;0.00;;;;;;;;;;1726988;28;20200;-69
2022/08/05 04:57:40;;;;;;;0.00;0.00;;;;;;;;;;1726556;28;20733;-69
2022/08/05 04:58:32;;;;;;;0.00;0.00;;;;;;;;;;1727130;28;20534;-69
2022/08/05 04:59:24;;;;;;;0.00;0.00;;;;;;;;;;1726077;28;20220;-68
2022/08/05 05:00:16;;;;;;;0.00;0.00;;;;;;;;;;1725562;28;20656;-68
2022/08/05 05:01:08;;;;;;;0.00;0.00;;;;;;;;;;1725796;28;20288;-68
2022/08/05 05:02:00;;;;;;;0.00;0.00;;;;;;;;;;1726779;28;20200;-68
2022/08/05 05:02:52;;;;;;;0.00;0.00;;;;;;;;;;1725647;28;20247;-68
2022/08/05 05:03:44;;;;;;;0.00;0.00;;;;;;;;;;1727091;28;20200;-68
2022/08/05 05:04:36;;;;;;;0.00;0.00;;;;;;;;;;1725689;28;20204;-68
2022/08/05 05:05:29;;;;;;;0.00;0.00;;;;;;;;;;1725692;28;20580;-68
2022/08/05 05:06:20;;;;;;;0.00;0.00;;;;;;;;;;1725563;28;20715;-68
2022/08/05 05:07:13;;;;;;;0.00;0.00;;;;;;;;;;1726455;28;20579;-67
2022/08/05 05:08:05;;;;;;;0.00;0.00;;;;;;;;;;1725200;28;20239;-68
2022/08/05 05:08:58;;;;;;;0.00;0.00;;;;;;;;;;1725192;28;20656;-68
2022/08/05 05:09:50;;;;;;;0.00;0.00;;;;;;;;;;1725611;28;20208;-68
2022/08/05 05:10:44;;;;;;;0.00;0.00;;;;;;;;;;1719822;28;20228;-68
2022/08/05 05:11:35;;;;;;;0.00;0.00;;;;;;;;;;1727179;28;20208;-68
2022/08/05 05:12:27;;;;;;;0.00;0.00;;;;;;;;;;1725142;28;20216;-69
2022/08/05 05:13:19;;;;;;;0.00;0.00;;;;;;;;;;1727172;28;20219;-68
2022/08/05 05:14:11;;;;;;;0.00;0.00;;;;;;;;;;1723893;28;21111;-70
2022/08/05 05:15:04;;;;;;;0.00;0.00;;;;;;;;;;1723265;28;20217;-69
2022/08/05 05:15:56;;;;;;;0.00;0.00;;;;;;;;;;1719115;28;20656;-69
2022/08/05 05:16:47;;;;;;;0.00;0.00;;;;;;;;;;1725570;28;20341;-68